createdAt,value
2022-10-11T00:01:38.867Z,16.45
2022-10-11T00:04:07.152Z,16.33
2022-10-11T00:06:34.449Z,16.26
2022-10-11T00:09:01.553Z,16.26
2022-10-11T00:11:28.482Z,16.24
2022-10-11T00:13:55.405Z,16.26
2022-10-11T00:16:22.640Z,16.17
2022-10-11T00:18:55.095Z,16.10
2022-10-11T00:21:23.599Z,15.99
2022-10-11T00:23:50.496Z,16.02
2022-10-11T00:26:18.037Z,16.04
2022-10-11T00:28:45.001Z,16.07
2022-10-11T00:31:15.502Z,16.12
2022-10-11T00:33:42.758Z,16.15
2022-10-11T00:36:11.351Z,16.22
2022-10-11T00:38:39.858Z,16.30
2022-10-11T00:41:06.794Z,16.38
2022-10-11T00:43:34.572Z,16.44
2022-10-11T00:46:35.940Z,16.51
2022-10-11T00:49:13.146Z,16.55
2022-10-11T00:51:48.524Z,16.53
2022-10-11T00:54:23.791Z,16.44
2022-10-11T00:56:58.346Z,16.40
2022-10-11T00:59:31.139Z,16.44
2022-10-11T01:01:58.147Z,16.49
2022-10-11T01:04:25.434Z,16.54
2022-10-11T01:06:54.801Z,16.59
2022-10-11T01:09:24.642Z,16.64
2022-10-11T01:11:56.096Z,16.68
2022-10-11T01:14:59.174Z,16.62
2022-10-11T01:17:44.865Z,16.53
2022-10-11T01:20:40.238Z,16.48
2022-10-11T01:24:08.530Z,16.54
2022-10-11T01:27:29.458Z,16.61
2022-10-11T01:30:15.861Z,16.65
2022-10-11T01:32:57.582Z,16.72
2022-10-11T01:35:33.417Z,16.74
2022-10-11T01:38:09.165Z,16.74
2022-10-11T01:40:45.870Z,16.75
2022-10-11T01:43:15.540Z,16.73
2022-10-11T01:45:48.139Z,16.66
2022-10-11T01:48:15.013Z,16.66
2022-10-11T01:50:46.708Z,16.65
2022-10-11T01:53:40.211Z,16.64
2022-10-11T01:56:25.955Z,16.53
2022-10-11T01:59:13.559Z,16.44
2022-10-11T02:01:58.058Z,16.42
2022-10-11T02:04:35.439Z,16.48
2022-10-11T02:07:14.958Z,16.53
2022-10-11T02:09:52.587Z,16.59
2022-10-11T02:12:42.854Z,16.62
2022-10-11T02:15:15.766Z,16.66
2022-10-11T02:17:53.975Z,16.68
2022-10-11T02:20:25.710Z,16.54
2022-10-11T02:23:01.352Z,16.52
2022-10-11T02:25:34.947Z,16.46
2022-10-11T02:28:09.434Z,16.33
2022-10-11T02:30:40.180Z,16.33
2022-10-11T02:33:14.346Z,16.32
2022-10-11T02:35:47.901Z,16.23
2022-10-11T02:38:24.415Z,16.23
2022-10-11T02:41:00.662Z,16.32
2022-10-11T02:43:36.501Z,16.38
2022-10-11T02:46:08.423Z,16.45
2022-10-11T02:48:37.995Z,16.47
2022-10-11T02:51:05.327Z,16.50
2022-10-11T02:53:33.349Z,16.52
2022-10-11T02:56:00.342Z,16.52
2022-10-11T02:58:27.572Z,16.51
2022-10-11T03:00:54.487Z,16.51
2022-10-11T03:03:21.372Z,16.48
2022-10-11T03:05:49.607Z,16.42
2022-10-11T03:08:17.120Z,16.38
2022-10-11T03:10:44.378Z,16.37
2022-10-11T03:13:14.798Z,16.38
2022-10-11T03:16:05.405Z,16.33
2022-10-11T03:18:33.170Z,16.31
2022-10-11T03:21:01.746Z,16.32
2022-10-11T03:23:28.615Z,16.33
2022-10-11T03:25:55.583Z,16.34
2022-10-11T03:28:22.729Z,16.34
2022-10-11T03:30:50.809Z,16.31
2022-10-11T03:33:18.022Z,16.25
2022-10-11T03:35:46.813Z,16.22
2022-10-11T03:38:19.182Z,16.18
2022-10-11T03:40:46.303Z,16.16
2022-10-11T03:43:13.742Z,16.11
2022-10-11T03:45:40.938Z,16.08
2022-10-11T03:48:08.988Z,16.06
2022-10-11T03:50:36.292Z,16.07
2022-10-11T03:53:05.710Z,16.08
2022-10-11T03:55:34.018Z,16.09
2022-10-11T03:58:01.020Z,16.08
2022-10-11T04:00:27.949Z,16.07
2022-10-11T04:02:54.868Z,16.07
2022-10-11T04:05:23.153Z,16.10
2022-10-11T04:07:50.404Z,16.08
2022-10-11T04:10:18.367Z,16.05
2022-10-11T04:12:46.626Z,16.04
2022-10-11T04:15:13.827Z,15.93
2022-10-11T04:17:40.944Z,15.79
2022-10-11T04:20:09.988Z,15.79
2022-10-11T04:22:37.061Z,15.84
2022-10-11T04:25:05.467Z,15.87
2022-10-11T04:27:32.553Z,15.87
2022-10-11T04:30:02.256Z,15.87
2022-10-11T04:32:29.233Z,15.88
2022-10-11T04:34:56.092Z,15.88
2022-10-11T04:37:23.000Z,15.87
2022-10-11T04:39:49.918Z,15.86
2022-10-11T04:42:16.958Z,15.83
2022-10-11T04:44:44.185Z,15.80
2022-10-11T04:47:14.135Z,15.81
2022-10-11T04:49:41.280Z,15.80
2022-10-11T04:52:08.599Z,15.74
2022-10-11T04:54:35.510Z,15.71
2022-10-11T04:57:02.584Z,15.70
2022-10-11T04:59:29.939Z,15.73
2022-10-11T05:01:56.873Z,15.74
2022-10-11T05:04:25.496Z,15.74
2022-10-11T05:06:52.608Z,15.65
2022-10-11T05:09:19.538Z,15.62
2022-10-11T05:11:46.550Z,15.62
2022-10-11T05:14:13.559Z,15.59
2022-10-11T05:16:40.546Z,15.55
2022-10-11T05:19:07.468Z,15.57
2022-10-11T05:21:35.758Z,15.59
2022-10-11T05:24:02.759Z,15.63
2022-10-11T05:26:30.253Z,15.64
2022-10-11T05:28:57.676Z,15.62
2022-10-11T05:31:24.724Z,15.62
2022-10-11T05:33:51.994Z,15.62
2022-10-11T05:36:19.503Z,15.57
2022-10-11T05:38:49.717Z,15.58
2022-10-11T05:41:18.033Z,15.54
2022-10-11T05:43:45.007Z,15.54
2022-10-11T05:46:13.034Z,15.56
2022-10-11T05:48:40.628Z,15.51
2022-10-11T05:51:09.153Z,15.54
2022-10-11T05:53:37.199Z,15.55
2022-10-11T05:56:18.116Z,15.53
2022-10-11T05:58:45.221Z,15.54
2022-10-11T06:01:18.741Z,15.55
2022-10-11T06:03:45.733Z,15.53
2022-10-11T06:06:12.653Z,15.55
2022-10-11T06:08:39.566Z,15.74
2022-10-11T06:11:16.349Z,15.95
2022-10-11T06:13:43.729Z,16.18
2022-10-11T06:16:12.351Z,16.34
2022-10-11T06:18:40.253Z,16.52
2022-10-11T06:21:07.371Z,16.68
2022-10-11T06:23:34.514Z,16.83
2022-10-11T06:26:19.494Z,16.95
2022-10-11T06:28:46.999Z,17.05
2022-10-11T06:31:14.394Z,17.08
2022-10-11T06:33:41.374Z,17.14
2022-10-11T06:36:14.573Z,17.12
2022-10-11T06:38:44.986Z,17.11
2022-10-11T06:41:17.916Z,17.12
2022-10-11T06:43:46.706Z,17.10
2022-10-11T06:46:13.563Z,17.03
2022-10-11T06:48:42.623Z,17.08
2022-10-11T06:51:10.031Z,17.01
2022-10-11T06:53:43.651Z,16.94
2022-10-11T06:56:12.622Z,16.87
2022-10-11T06:58:40.577Z,16.85
2022-10-11T07:01:12.797Z,16.85
2022-10-11T07:03:40.095Z,16.71
2022-10-11T07:06:11.154Z,16.58
2022-10-11T07:08:38.771Z,16.69
2022-10-11T07:11:08.946Z,16.74
2022-10-11T07:13:37.066Z,16.80
2022-10-11T07:16:09.739Z,16.95
2022-10-11T07:18:37.665Z,17.03
2022-10-11T07:21:08.363Z,17.01
2022-10-11T07:23:35.657Z,17.01
2022-10-11T07:26:03.445Z,17.08
2022-10-11T07:28:31.009Z,17.06
2022-10-11T07:30:59.539Z,17.03
2022-10-11T07:33:27.799Z,17.04
2022-10-11T07:35:57.641Z,17.06
2022-10-11T07:38:25.339Z,17.06
2022-10-11T07:40:52.290Z,17.10
2022-10-11T07:43:19.458Z,17.13
2022-10-11T07:45:46.369Z,17.10
2022-10-11T07:48:13.908Z,17.14
2022-10-11T07:50:42.555Z,17.13
2022-10-11T07:53:09.824Z,17.01
2022-10-11T07:55:38.142Z,17.03
2022-10-11T07:58:05.195Z,17.08
2022-10-11T08:00:32.084Z,17.07
2022-10-11T08:03:01.013Z,17.08
2022-10-11T08:05:28.304Z,17.11
2022-10-11T08:07:57.117Z,17.09
2022-10-11T08:10:24.371Z,17.08
2022-10-11T08:12:51.260Z,17.03
2022-10-11T08:15:19.220Z,16.92
2022-10-11T08:17:46.473Z,16.76
2022-10-11T08:20:14.328Z,16.71
2022-10-11T08:22:41.384Z,16.65
2022-10-11T08:25:09.879Z,16.67
2022-10-11T08:27:37.153Z,16.61
2022-10-11T08:30:06.415Z,16.63
2022-10-11T08:32:34.258Z,16.57
2022-10-11T08:35:01.647Z,16.64
2022-10-11T08:37:28.781Z,16.74
2022-10-11T08:39:55.896Z,16.83
2022-10-11T08:42:35.174Z,16.97
2022-10-11T08:45:11.383Z,17.04
2022-10-11T08:47:44.216Z,17.04
2022-10-11T08:50:19.812Z,17.07
2022-10-11T08:52:53.060Z,17.10
2022-10-11T08:55:28.704Z,17.06
2022-10-11T08:57:58.969Z,17.04
2022-10-11T09:00:32.645Z,17.02
2022-10-11T09:03:14.870Z,17.06
2022-10-11T09:06:07.270Z,17.28
2022-10-11T09:08:55.411Z,17.50
2022-10-11T09:11:39.357Z,17.76
2022-10-11T09:14:46.740Z,17.97
2022-10-11T09:17:31.346Z,18.49
2022-10-11T09:20:38.750Z,18.40
2022-10-11T09:23:26.924Z,19.35
2022-10-11T09:26:01.639Z,20.96
2022-10-11T09:28:49.683Z,22.07
2022-10-11T09:31:18.378Z,22.81
2022-10-11T09:33:49.543Z,23.47
2022-10-11T09:36:28.744Z,22.97
2022-10-11T09:39:07.124Z,22.89
2022-10-11T09:41:42.752Z,22.25
2022-10-11T09:44:22.974Z,22.17
2022-10-11T09:46:55.281Z,21.66
2022-10-11T09:49:29.705Z,21.33
2022-10-11T09:52:02.286Z,20.64
2022-10-11T09:54:41.064Z,21.38
2022-10-11T09:57:22.718Z,21.06
2022-10-11T10:00:05.345Z,21.13
2022-10-11T10:02:43.830Z,20.95
2022-10-11T10:05:18.996Z,20.90
2022-10-11T10:08:22.645Z,20.91
2022-10-11T10:11:00.880Z,21.14
2022-10-11T10:13:41.357Z,21.97
2022-10-11T10:16:24.878Z,19.24
2022-10-11T10:18:57.110Z,18.88
2022-10-11T10:21:31.398Z,18.57
2022-10-11T10:24:02.230Z,19.21
2022-10-11T10:26:30.303Z,19.95
2022-10-11T10:29:14.320Z,21.07
2022-10-11T10:34:56.566Z,22.00
2022-10-11T10:37:29.679Z,21.03
2022-10-11T10:40:06.454Z,20.61
2022-10-11T10:42:33.657Z,18.30
2022-10-11T10:45:01.386Z,19.19
2022-10-11T10:47:51.340Z,20.49
2022-10-11T10:50:31.414Z,20.69
2022-10-11T10:53:21.057Z,21.11
2022-10-11T10:55:58.165Z,21.10
2022-10-11T10:58:46.596Z,19.79
2022-10-11T11:01:23.074Z,20.33
2022-10-11T11:04:04.571Z,20.72
2022-10-11T11:06:44.385Z,20.99
2022-10-11T11:09:30.891Z,22.10
2022-10-11T11:12:14.482Z,21.97
2022-10-11T11:14:55.677Z,21.31
2022-10-11T11:17:43.590Z,21.10
2022-10-11T11:20:31.612Z,21.06
2022-10-11T11:23:18.056Z,21.44
2022-10-11T11:25:57.296Z,21.34
2022-10-11T11:29:03.409Z,21.18
2022-10-11T11:31:58.994Z,20.45
2022-10-11T11:34:32.841Z,20.05
2022-10-11T11:37:06.231Z,19.89
2022-10-11T11:39:44.433Z,19.54
2022-10-11T11:42:17.867Z,19.42
2022-10-11T11:44:48.234Z,19.24
2022-10-11T11:47:23.298Z,18.27
2022-10-11T11:49:59.641Z,18.62
2022-10-11T11:52:35.715Z,18.34
2022-10-11T11:55:16.606Z,18.28
2022-10-11T11:58:06.987Z,17.10
2022-10-11T12:00:48.734Z,17.66
2022-10-11T12:03:24.204Z,17.20
2022-10-11T12:07:11.398Z,16.78
2022-10-11T12:13:22.260Z,17.29
2022-10-11T12:16:09.161Z,17.65
2022-10-11T12:18:51.547Z,17.79
2022-10-11T12:21:28.301Z,17.88
2022-10-11T12:23:58.671Z,16.97
2022-10-11T12:26:44.417Z,16.94
2022-10-11T12:29:53.877Z,17.05
2022-10-11T12:32:50.518Z,16.50
2022-10-11T12:35:57.992Z,16.51
2022-10-11T12:38:32.495Z,16.93
2022-10-11T12:41:38.194Z,16.82
2022-10-11T12:44:22.233Z,16.49
2022-10-11T12:47:30.528Z,16.55
2022-10-11T12:50:21.472Z,16.34
2022-10-11T12:53:03.257Z,16.45
2022-10-11T12:55:46.780Z,16.82
2022-10-11T12:58:31.929Z,17.15
2022-10-11T13:01:18.428Z,17.35
2022-10-11T13:03:57.595Z,17.43
2022-10-11T13:06:28.848Z,17.41
2022-10-11T13:09:02.907Z,16.91
2022-10-11T13:11:33.594Z,17.14
2022-10-11T13:14:10.915Z,17.44
2022-10-11T13:16:57.850Z,17.37
2022-10-11T13:19:25.203Z,17.71
2022-10-11T13:32:54.866Z,18.07
2022-10-11T13:35:33.403Z,18.11
2022-10-11T13:38:01.370Z,18.38
2022-10-11T13:40:30.510Z,18.40
2022-10-11T13:42:59.462Z,18.43
2022-10-11T13:45:29.271Z,18.48
2022-10-11T13:47:56.699Z,18.61
2022-10-11T13:50:27.865Z,18.73
2022-10-11T13:52:58.179Z,18.65
2022-10-11T13:55:33.600Z,18.27
2022-10-11T13:58:08.789Z,18.38
2022-10-11T14:00:39.302Z,18.19
2022-10-11T14:03:18.844Z,18.26
2022-10-11T14:05:55.816Z,18.32
2022-10-11T14:08:31.977Z,18.39
2022-10-11T14:11:05.118Z,18.47
2022-10-11T14:13:37.433Z,18.48
2022-10-11T14:16:09.415Z,18.41
2022-10-11T14:18:47.118Z,18.34
2022-10-11T14:21:33.045Z,18.39
2022-10-11T14:24:03.373Z,18.45
2022-10-11T14:26:35.206Z,18.40
2022-10-11T14:29:07.877Z,18.41
2022-10-11T14:31:41.891Z,18.32
2022-10-11T14:34:18.491Z,18.35
2022-10-11T14:36:45.542Z,18.33
2022-10-11T14:39:16.240Z,18.18
2022-10-11T14:41:43.183Z,18.09
2022-10-11T14:44:10.052Z,18.03
2022-10-11T14:46:39.304Z,18.08
2022-10-11T14:49:12.933Z,18.00
2022-10-11T14:51:40.847Z,18.08
2022-10-11T14:54:08.336Z,18.18
2022-10-11T14:56:35.468Z,18.26
2022-10-11T14:59:02.372Z,18.34
2022-10-11T15:01:29.193Z,18.45
2022-10-11T15:03:57.477Z,18.55
2022-10-11T15:06:30.801Z,18.58
2022-10-11T15:08:57.774Z,18.56
2022-10-11T15:11:24.953Z,18.54
2022-10-11T15:13:51.728Z,18.41
2022-10-11T15:16:21.251Z,18.41
2022-10-11T15:18:49.640Z,18.41
2022-10-11T15:21:21.167Z,18.20
2022-10-11T15:23:49.746Z,18.23
2022-10-11T15:26:20.808Z,18.28
2022-10-11T15:28:49.877Z,18.27
2022-10-11T15:31:17.125Z,18.23
2022-10-11T15:33:44.122Z,18.21
2022-10-11T15:36:14.506Z,18.13
2022-10-11T15:38:43.728Z,17.99
2022-10-11T15:41:34.304Z,17.79
2022-10-11T15:43:59.995Z,17.65
2022-10-11T15:46:44.480Z,17.60
2022-10-11T15:49:13.142Z,17.63
2022-10-11T15:51:41.020Z,17.54
2022-10-11T15:54:09.467Z,17.61
2022-10-11T15:56:38.851Z,17.40
2022-10-11T16:03:36.271Z,16.62
2022-10-11T16:06:05.690Z,16.47
2022-10-11T16:08:33.569Z,16.54
2022-10-11T16:11:03.133Z,16.62
2022-10-11T16:13:30.309Z,16.65
2022-10-11T16:15:57.508Z,16.75
2022-10-11T16:18:24.435Z,16.79
2022-10-11T16:20:52.806Z,16.74
2022-10-11T16:23:30.966Z,16.68
2022-10-11T16:26:20.647Z,16.66
2022-10-11T16:28:48.704Z,16.77
2022-10-11T16:31:18.382Z,16.76
2022-10-11T16:33:46.222Z,16.87
2022-10-11T16:36:15.851Z,16.86
2022-10-11T16:38:44.944Z,16.85
2022-10-11T16:41:12.000Z,16.83
2022-10-11T16:43:40.233Z,16.86
2022-10-11T16:46:07.676Z,16.75
2022-10-11T16:48:37.722Z,16.68
2022-10-11T16:51:10.870Z,16.69
2022-10-11T16:53:53.589Z,16.66
2022-10-11T16:56:24.066Z,16.59
2022-10-11T16:58:53.435Z,16.63
2022-10-11T17:01:21.598Z,16.59
2022-10-11T17:03:49.830Z,16.57
2022-10-11T17:06:17.865Z,16.54
2022-10-11T17:08:46.730Z,16.52
2022-10-11T17:11:18.187Z,16.44
2022-10-11T17:13:46.360Z,16.34
2022-10-11T17:16:15.577Z,16.34
2022-10-11T17:18:43.042Z,16.33
2022-10-11T17:21:33.746Z,16.33
2022-10-11T17:24:03.183Z,16.28
2022-10-11T17:26:34.664Z,16.27
2022-10-11T17:29:15.389Z,16.25
2022-10-11T17:32:57.007Z,16.19
2022-10-11T17:35:25.645Z,16.02
2022-10-11T17:37:52.666Z,15.95
2022-10-11T17:40:19.746Z,15.85
2022-10-11T17:42:46.747Z,15.78
2022-10-11T17:45:13.935Z,15.68
2022-10-11T17:47:40.986Z,15.61
2022-10-11T17:50:08.439Z,15.53
2022-10-11T17:52:36.872Z,15.47
2022-10-11T17:55:04.590Z,15.40
2022-10-11T17:57:32.758Z,15.34
2022-10-11T17:59:59.589Z,15.37
2022-10-11T18:02:27.025Z,15.38
2022-10-11T18:05:04.671Z,15.41
2022-10-11T18:07:36.438Z,15.37
2022-10-11T18:10:03.713Z,15.34
2022-10-11T18:12:30.773Z,15.39
2022-10-11T18:15:08.551Z,15.33
2022-10-11T18:17:35.964Z,15.24
2022-10-11T18:20:04.488Z,15.22
2022-10-11T18:22:34.121Z,15.09
2022-10-11T18:25:02.933Z,14.99
2022-10-11T18:27:29.969Z,14.82
2022-10-11T18:29:58.104Z,14.62
2022-10-11T18:32:25.358Z,14.57
2022-10-11T18:34:52.324Z,14.52
2022-10-11T18:37:19.118Z,14.55
2022-10-11T18:39:46.154Z,14.53
2022-10-11T18:42:14.437Z,14.56
2022-10-11T18:44:41.682Z,14.63
2022-10-11T18:47:08.563Z,14.57
2022-10-11T18:49:35.788Z,14.41
2022-10-11T18:52:02.758Z,14.53
2022-10-11T18:54:30.101Z,14.54
2022-10-11T18:56:58.395Z,14.55
2022-10-11T18:59:27.127Z,14.70
2022-10-11T19:01:54.191Z,14.70
2022-10-11T19:04:21.207Z,14.72
2022-10-11T19:06:49.637Z,14.71
2022-10-11T19:09:19.440Z,14.63
2022-10-11T19:11:46.297Z,14.46
2022-10-11T19:14:17.151Z,14.45
2022-10-11T19:16:48.866Z,14.50
2022-10-11T19:19:16.787Z,14.51
2022-10-11T19:21:43.826Z,14.52
2022-10-11T19:24:10.885Z,14.56
2022-10-11T19:26:40.295Z,14.59
2022-10-11T19:29:10.620Z,14.54
2022-10-11T19:31:43.150Z,14.50
2022-10-11T19:34:11.881Z,14.36
2022-10-11T19:36:39.819Z,14.36
2022-10-11T19:39:07.004Z,14.31
2022-10-11T19:41:34.087Z,14.36
2022-10-11T19:44:00.936Z,14.41
2022-10-11T19:49:17.953Z,14.50
2022-10-11T19:51:44.954Z,14.58
2022-10-11T19:54:15.138Z,14.65
2022-10-11T19:56:42.843Z,14.68
2022-10-11T19:59:11.108Z,14.65
2022-10-11T20:01:39.315Z,14.63
2022-10-11T20:04:12.884Z,14.66
2022-10-11T20:06:47.423Z,14.63
2022-10-11T20:09:29.156Z,14.65
2022-10-11T20:11:57.079Z,14.70
2022-10-11T20:14:24.542Z,14.68
2022-10-11T20:16:51.804Z,14.70
2022-10-11T20:19:19.118Z,14.69
2022-10-11T20:21:47.626Z,14.73
2022-10-11T20:24:15.235Z,14.75
2022-10-11T20:26:42.383Z,14.72
2022-10-11T20:29:09.324Z,14.71
2022-10-11T20:31:36.817Z,14.70
2022-10-11T20:34:04.359Z,14.73
2022-10-11T20:36:33.351Z,14.74
2022-10-11T20:39:02.128Z,14.72
2022-10-11T20:41:31.607Z,14.71
2022-10-11T20:44:01.125Z,14.73
2022-10-11T20:46:31.030Z,14.72
2022-10-11T20:49:02.109Z,14.69
2022-10-11T20:51:31.241Z,14.73
2022-10-11T20:53:59.159Z,14.77
2022-10-11T20:56:28.083Z,14.81
2022-10-11T20:58:57.732Z,14.79
2022-10-11T21:01:27.600Z,14.76
2022-10-11T21:03:56.571Z,14.78
2022-10-11T21:06:24.552Z,14.73
2022-10-11T21:08:51.707Z,14.68
2022-10-11T21:11:18.522Z,14.70
2022-10-11T21:13:46.678Z,14.70
2022-10-11T21:16:16.269Z,14.71
2022-10-11T21:18:43.085Z,14.67
2022-10-11T21:21:12.696Z,14.67
2022-10-11T21:23:40.483Z,14.68
2022-10-11T21:26:11.276Z,14.69
2022-10-11T21:28:39.543Z,14.71
2022-10-11T21:31:10.995Z,14.74
2022-10-11T21:33:38.732Z,14.79
2022-10-11T21:36:08.145Z,14.81
2022-10-11T21:38:36.164Z,14.81
2022-10-11T21:41:04.834Z,14.83
2022-10-11T21:43:33.578Z,14.84
2022-10-11T21:46:07.301Z,14.80
2022-10-11T21:48:35.476Z,14.69
2022-10-11T21:51:02.287Z,14.67
2022-10-11T21:53:29.151Z,14.69
2022-10-11T21:55:57.266Z,14.69
2022-10-11T21:58:24.172Z,14.69
2022-10-11T22:00:51.312Z,14.70
2022-10-11T22:03:18.594Z,14.69
2022-10-11T22:05:47.682Z,14.68
2022-10-11T22:08:15.625Z,14.64
2022-10-11T22:10:43.640Z,14.65
2022-10-11T22:13:11.202Z,14.65
2022-10-11T22:15:39.132Z,14.65
2022-10-11T22:18:05.985Z,14.58
2022-10-11T22:20:33.869Z,14.61
2022-10-11T22:23:01.992Z,14.62
2022-10-11T22:25:29.033Z,14.61
2022-10-11T22:27:56.142Z,14.60
2022-10-11T22:30:23.143Z,14.60
2022-10-11T22:32:51.115Z,14.60
2022-10-11T22:35:17.954Z,14.61
2022-10-11T22:37:44.838Z,14.61
2022-10-11T22:40:13.486Z,14.58
2022-10-11T22:42:40.251Z,14.59
2022-10-11T22:45:07.924Z,14.60
2022-10-11T22:47:35.288Z,14.61
2022-10-11T22:50:02.771Z,14.59
2022-10-11T22:52:29.628Z,14.57
2022-10-11T22:54:56.608Z,14.57
2022-10-11T22:57:24.890Z,14.53
2022-10-11T22:59:52.255Z,14.54
2022-10-11T23:02:19.262Z,14.43
2022-10-11T23:04:46.070Z,14.37
2022-10-11T23:07:12.834Z,14.32
2022-10-11T23:09:39.685Z,14.32
2022-10-11T23:12:07.528Z,14.29
2022-10-11T23:14:35.723Z,14.33
2022-10-11T23:17:02.564Z,14.36
2022-10-11T23:19:29.455Z,14.37
2022-10-11T23:21:56.487Z,14.42
2022-10-11T23:24:23.221Z,14.42
2022-10-11T23:26:50.228Z,14.47
2022-10-11T23:29:17.350Z,14.52
2022-10-11T23:31:45.565Z,14.53
2022-10-11T23:34:12.379Z,14.51
2022-10-11T23:36:39.379Z,14.50
2022-10-11T23:39:06.243Z,14.51
2022-10-11T23:41:33.219Z,14.50
2022-10-11T23:43:59.989Z,14.51
2022-10-11T23:46:27.110Z,14.50
2022-10-11T23:48:55.531Z,14.51
2022-10-11T23:51:22.380Z,14.52
2022-10-11T23:53:49.232Z,14.52
2022-10-11T23:56:16.369Z,14.51
2022-10-11T23:58:43.184Z,14.52
